Time;durP1;ratioP1;P1;durP2;ratioP2;P2;SDS_P1;SDS_P2;PMS_P1;PMS_P2;Temp;Humidity;BMP_temperature;BMP_pressure;BME280_temperature;BME280_humidity;BME280_pressure;Samples;Min_cycle;Max_cycle;Signal;HPM_P1;HPM_P2
2023/03/25 00:01:55;;;;;;;6.88;1.60;;;;;;;8.54;100.00;100183.84;4979296;28;20549;-88
2023/03/25 00:04:20;;;;;;;5.60;1.42;;;;;;;8.45;100.00;100185.81;4978509;28;20636;-87
2023/03/25 00:06:46;;;;;;;6.82;1.90;;;;;;;8.37;100.00;100182.56;4979923;28;20037;-87
2023/03/25 00:09:11;;;;;;;5.07;1.52;;;;;;;8.45;100.00;100197.00;4979473;28;20056;-88
2023/03/25 00:11:37;;;;;;;6.32;1.75;;;;;;;8.42;100.00;100203.97;4980293;28;20029;-88
2023/03/25 00:14:03;;;;;;;8.57;1.50;;;;;;;8.49;100.00;100208.94;4980223;28;20517;-88
2023/03/25 00:16:28;;;;;;;7.60;1.67;;;;;;;8.55;99.62;100207.94;4979749;28;20088;-88
2023/03/25 00:18:54;;;;;;;7.38;1.58;;;;;;;8.56;99.89;100214.78;4979593;28;20038;-88
2023/03/25 00:21:20;;;;;;;5.63;1.50;;;;;;;8.58;99.86;100194.94;4977178;28;20524;-88
2023/03/25 00:23:45;;;;;;;6.68;1.58;;;;;;;8.59;99.19;100192.34;4979337;28;20034;-88
2023/03/25 00:26:11;;;;;;;5.65;1.60;;;;;;;8.59;98.78;100209.56;4978956;28;20049;-88
2023/03/25 00:28:37;;;;;;;7.47;1.85;;;;;;;8.58;99.54;100205.28;4980157;28;20031;-88
2023/03/25 00:31:10;;;;;;;8.18;1.60;;;;;;;8.62;99.28;100205.16;4978604;28;20088;-88
2023/03/25 00:33:35;;;;;;;9.68;1.88;;;;;;;8.69;98.50;100211.84;4978978;28;20039;-88
2023/03/25 00:36:03;;;;;;;9.52;1.73;;;;;;;8.66;97.71;100205.94;4979389;28;20034;-88
2023/03/25 00:38:34;;;;;;;7.95;1.38;;;;;;;8.61;97.56;100200.88;4977709;28;20033;-91
2023/03/25 00:41:16;;;;;;;5.13;1.48;;;;;;;8.67;97.69;100203.28;4977664;28;20034;-92
2023/03/25 00:43:44;;;;;;;5.80;1.70;;;;;;;8.66;97.85;100209.38;4967119;28;20129;-91
2023/03/25 00:46:10;;;;;;;7.60;1.63;;;;;;;8.58;96.16;100192.38;4979296;28;20855;-91
2023/03/25 00:48:35;;;;;;;6.28;1.50;;;;;;;8.66;96.05;100211.09;4979922;28;20504;-91
2023/03/25 00:51:06;;;;;;;8.32;1.50;;;;;;;8.61;95.34;100203.44;4978810;28;20037;-91
2023/03/25 00:53:32;;;;;;;7.93;1.50;;;;;;;8.60;95.44;100196.59;4978800;28;20122;-90
2023/03/25 00:55:58;;;;;;;8.02;1.63;;;;;;;8.54;95.57;100193.31;4980428;28;20041;-92
2023/03/25 00:58:23;;;;;;;6.97;1.58;;;;;;;8.56;95.84;100188.97;4978167;28;20046;-91
2023/03/25 01:00:49;;;;;;;5.00;1.75;;;;;;;8.61;95.83;100190.53;4979123;28;20049;-91
2023/03/25 01:03:14;;;;;;;8.05;1.58;;;;;;;8.63;95.04;100199.09;4979708;28;20026;-91
2023/03/25 01:05:40;;;;;;;6.30;1.70;;;;;;;8.64;96.14;100218.88;4995050;28;20030;-91
2023/03/25 01:08:06;;;;;;;9.30;1.92;;;;;;;8.57;95.51;100196.69;4978884;28;20046;-91
2023/03/25 01:10:35;;;;;;;9.35;1.73;;;;;;;8.54;96.00;100185.56;4979225;28;20418;-91
2023/03/25 01:13:00;;;;;;;8.50;1.70;;;;;;;8.57;96.64;100201.84;4979693;28;20113;-91
2023/03/25 01:15:26;;;;;;;7.72;1.58;;;;;;;8.50;96.08;100189.97;4978410;28;20592;-92
2023/03/25 01:17:51;;;;;;;8.02;1.50;;;;;;;8.61;95.98;100205.19;4979636;28;20537;-91
2023/03/25 01:20:17;;;;;;;5.75;1.70;;;;;;;8.57;96.07;100196.69;4978142;28;20113;-91
2023/03/25 01:22:42;;;;;;;7.03;1.70;;;;;;;8.59;95.77;100194.91;4979808;28;20101;-91
2023/03/25 01:25:08;;;;;;;6.63;1.55;;;;;;;8.56;96.14;100184.66;4961849;28;20321;-91
2023/03/25 01:27:33;;;;;;;7.57;1.83;;;;;;;8.64;96.38;100200.81;4965552;28;20833;-92
2023/03/25 01:29:59;;;;;;;6.32;2.13;;;;;;;8.71;94.88;100198.91;4961237;28;20030;-92
2023/03/25 01:32:24;;;;;;;4.70;1.70;;;;;;;8.55;95.83;100185.53;4976612;28;20022;-91
2023/03/25 01:34:50;;;;;;;7.85;1.60;;;;;;;8.57;96.23;100196.69;4977156;28;20029;-91
2023/03/25 01:37:17;;;;;;;6.05;1.80;;;;;;;8.56;96.21;100187.22;4977691;28;20067;-91
2023/03/25 01:39:42;;;;;;;4.70;1.73;;;;;;;8.66;96.55;100204.19;4979527;28;20210;-91
2023/03/25 01:42:10;;;;;;;8.25;2.00;;;;;;;8.56;97.24;100196.72;4977894;28;20108;-92
2023/03/25 01:44:39;;;;;;;4.00;1.60;;;;;;;8.62;97.46;100207.72;4978943;28;20588;-91
2023/03/25 01:47:07;;;;;;;7.15;1.90;;;;;;;8.61;97.41;100203.44;4979206;28;20068;-91
2023/03/25 01:49:43;;;;;;;7.60;2.25;;;;;;;8.55;98.13;100195.00;4978752;28;20538;-87
2023/03/25 01:52:12;;;;;;;4.35;1.80;;;;;;;8.49;98.03;100196.03;4977213;28;20030;-88
2023/03/25 01:54:39;;;;;;;5.32;1.80;;;;;;;8.50;98.77;100200.31;4978954;28;20030;-87
2023/03/25 01:57:08;;;;;;;4.97;1.90;;;;;;;8.47;99.85;100210.69;4977430;28;20101;-88
2023/03/25 01:59:35;;;;;;;4.68;1.88;;;;;;;8.41;100.00;100195.38;4977354;28;20061;-87
2023/03/25 02:02:05;;;;;;;5.35;1.98;;;;;;;8.32;100.00;100195.63;4978509;28;20022;-87
2023/03/25 02:04:49;;;;;;;7.05;1.80;;;;;;;8.27;100.00;100176.75;4976188;28;20026;-87
2023/03/25 02:07:15;;;;;;;6.65;2.03;;;;;;;8.11;100.00;100178.03;4977368;28;20026;-87
2023/03/25 02:09:41;;;;;;;4.63;1.90;;;;;;;8.04;100.00;100176.47;4979078;28;20030;-87
2023/03/25 02:12:07;;;;;;;4.63;2.03;;;;;;;8.12;100.00;100182.31;4978232;28;20631;-88
2023/03/25 02:14:35;;;;;;;7.10;1.90;;;;;;;8.13;100.00;100194.31;4977027;28;20569;-87
2023/03/25 02:17:13;;;;;;;5.60;1.98;;;;;;;8.10;100.00;100189.25;4977689;28;20044;-88
2023/03/25 02:20:16;;;;;;;3.80;1.90;;;;;;;8.10;100.00;100190.09;4977743;28;20037;-87
2023/03/25 02:22:58;;;;;;;3.33;1.65;;;;;;;8.09;100.00;100183.22;4965555;28;20524;-87
2023/03/25 02:26:02;;;;;;;3.92;1.70;;;;;;;8.12;100.00;100180.56;4975042;28;20394;-87
2023/03/25 02:28:49;;;;;;;6.53;1.60;;;;;;;8.06;100.00;100175.53;4977568;28;20033;-88
2023/03/25 02:31:33;;;;;;;6.05;2.00;;;;;;;8.14;100.00;100186.53;4975581;28;20449;-87
2023/03/25 02:34:22;;;;;;;4.47;1.73;;;;;;;8.10;100.00;100191.81;4964512;28;20158;-88
2023/03/25 02:37:11;;;;;;;4.72;1.88;;;;;;;8.09;100.00;100183.22;4977462;28;20126;-87
2023/03/25 02:39:46;;;;;;;7.22;2.20;;;;;;;7.89;100.00;100188.88;4976554;28;20034;-88
2023/03/25 02:42:32;;;;;;;4.20;1.83;;;;;;;7.85;100.00;100178.63;4977812;28;20034;-87
2023/03/25 02:45:12;;;;;;;4.97;2.10;;;;;;;7.79;100.00;100177.03;4980979;28;20160;-88
2023/03/25 02:47:48;;;;;;;5.70;1.95;;;;;;;7.80;100.00;100183.91;4980321;28;20030;-87
2023/03/25 02:50:20;;;;;;;6.75;2.13;;;;;;;7.80;100.00;100173.59;4980524;28;20030;-87
2023/03/25 02:52:49;;;;;;;5.85;2.25;;;;;;;7.78;100.00;100175.34;4968985;28;20089;-88
2023/03/25 02:58:54;;;;;;;6.60;2.05;;;;;;;7.78;100.00;100175.34;4927005;28;20153;-88
2023/03/25 03:01:21;;;;;;;5.18;1.70;;;;;;;7.68;100.00;100152.38;4979595;28;20033;-88
2023/03/25 03:03:47;;;;;;;5.70;2.08;;;;;;;7.78;100.00;100164.19;4980133;28;20509;-88
2023/03/25 03:06:17;;;;;;;7.10;1.90;;;;;;;7.84;100.00;100164.91;4994960;28;20026;-87
2023/03/25 03:08:49;;;;;;;4.85;2.03;;;;;;;7.85;100.00;100158.84;4979889;28;20030;-88
2023/03/25 03:11:23;;;;;;;9.13;2.20;;;;;;;7.77;100.00;100153.03;4979923;28;20038;-88
2023/03/25 03:14:07;;;;;;;4.68;1.50;;;;;;;7.79;100.00;100173.63;4980875;28;20065;-88
2023/03/25 03:16:44;;;;;;;8.07;1.90;;;;;;;7.77;100.00;100155.63;4977597;28;20511;-88
2023/03/25 03:19:33;;;;;;;10.57;2.20;;;;;;;7.68;100.00;100166.13;4980299;28;20394;-88
2023/03/25 03:22:16;;;;;;;8.27;1.98;;;;;;;7.60;100.00;100169.75;4978119;28;20035;-87
2023/03/25 03:24:58;;;;;;;7.93;2.03;;;;;;;7.56;100.00;100161.25;4979722;28;20038;-88
2023/03/25 03:27:38;;;;;;;6.85;2.20;;;;;;;7.59;100.00;100165.47;4961776;28;20566;-88
2023/03/25 03:30:11;;;;;;;9.38;2.30;;;;;;;7.58;100.00;100166.34;4979706;28;20061;-87
2023/03/25 03:32:48;;;;;;;8.65;1.88;;;;;;;7.62;100.00;100175.75;4980387;28;20038;-88
2023/03/25 03:35:30;;;;;;;7.22;1.90;;;;;;;7.55;100.00;100172.44;4968521;28;20117;-88
2023/03/25 03:38:05;;;;;;;9.48;2.30;;;;;;;7.47;100.00;100172.63;4980264;28;20097;-88
2023/03/25 03:40:32;;;;;;;7.15;1.75;;;;;;;7.39;100.00;100177.09;4980705;28;20429;-88
2023/03/25 03:43:06;;;;;;;8.32;2.20;;;;;;;7.31;100.00;100165.22;4979771;28;20027;-87
2023/03/25 03:45:47;;;;;;;7.43;2.10;;;;;;;7.27;100.00;100176.50;4981603;28;20034;-87
2023/03/25 03:48:39;;;;;;;4.22;1.55;;;;;;;7.31;100.00;100160.94;4980001;28;20022;-88
2023/03/25 03:51:18;;;;;;;6.78;2.00;;;;;;;7.26;100.00;100154.19;4990004;28;20039;-86
2023/03/25 03:53:57;;;;;;;6.93;2.05;;;;;;;7.36;100.00;100163.44;4979791;28;20023;-87
2023/03/25 03:56:35;;;;;;;8.23;2.00;;;;;;;7.32;100.00;100162.63;4980236;28;20033;-87
2023/03/25 03:59:07;;;;;;;6.47;1.83;;;;;;;7.37;100.00;100159.97;4980218;28;20061;-88
2023/03/25 04:01:46;;;;;;;10.98;1.88;;;;;;;7.41;100.00;100171.91;4977509;28;20501;-87
2023/03/25 04:04:25;;;;;;;10.55;1.90;;;;;;;7.36;100.00;100153.97;4979477;28;20037;-87
2023/03/25 04:07:00;;;;;;;9.32;1.70;;;;;;;7.41;100.00;100164.16;4979138;28;20041;-87
2023/03/25 04:09:39;;;;;;;10.25;1.90;;;;;;;7.47;100.00;100156.28;4979161;28;20433;-87
2023/03/25 04:12:18;;;;;;;8.30;1.85;;;;;;;7.46;100.00;100163.19;4961619;28;20077;-87
2023/03/25 04:14:44;;;;;;;7.38;1.55;;;;;;;7.48;100.00;100151.13;4978733;28;20027;-87
2023/03/25 04:17:09;;;;;;;12.07;2.00;;;;;;;7.59;100.00;100163.75;4993168;28;20042;-86
2023/03/25 04:19:35;;;;;;;8.70;1.70;;;;;;;7.54;100.00;100165.59;4961502;28;20034;-87
2023/03/25 04:22:02;;;;;;;8.13;2.58;;;;;;;7.54;100.00;100157.84;4980215;28;20323;-87
2023/03/25 04:24:31;;;;;;;8.68;1.65;;;;;;;7.55;100.00;100154.41;4979908;28;20025;-87
2023/03/25 04:26:58;;;;;;;10.20;1.63;;;;;;;7.58;100.00;100159.47;4962121;28;20023;-88
2023/03/25 04:29:24;;;;;;;9.57;1.80;;;;;;;7.64;100.00;100158.50;4979684;28;20037;-88
2023/03/25 04:31:53;;;;;;;4.38;1.60;;;;;;;7.67;100.00;100161.84;4979273;28;20046;-87
2023/03/25 04:34:19;;;;;;;8.77;1.50;;;;;;;7.66;100.00;100169.63;4980262;28;20034;-87
2023/03/25 04:36:45;;;;;;;7.15;1.58;;;;;;;7.71;100.00;100178.13;4961338;28;20042;-87
2023/03/25 04:39:11;;;;;;;5.40;1.80;;;;;;;7.72;100.00;100174.63;4979408;28;20058;-91
2023/03/25 04:41:38;;;;;;;8.35;1.70;;;;;;;7.72;100.00;100170.31;4979631;28;20061;-91
2023/03/25 04:44:06;;;;;;;8.30;1.75;;;;;;;7.70;100.00;100171.25;4979282;28;20453;-91
2023/03/25 04:46:33;;;;;;;9.10;1.60;;;;;;;7.74;100.00;100171.16;4979694;28;20029;-91
2023/03/25 04:48:59;;;;;;;8.63;1.80;;;;;;;7.72;100.00;100162.59;4978952;28;20443;-91
2023/03/25 04:51:33;;;;;;;11.48;3.20;;;;;;;7.77;100.00;100176.25;4980199;28;20548;-90
2023/03/25 04:53:59;;;;;;;;;;;;;;;7.79;100.00;100173.63;4978705;28;20117;-91
2023/03/25 04:56:25;;;;;;;5.05;1.15;;;;;;;7.76;100.00;100178.88;4979087;28;20353;-91
2023/03/25 04:58:51;;;;;;;6.45;1.77;;;;;;;7.68;100.00;100154.97;4978948;28;20050;-91
2023/03/25 05:01:29;;;;;;;6.82;1.80;;;;;;;7.71;100.00;100170.38;4980080;28;20057;-91
2023/03/25 05:04:23;;;;;;;3.78;1.50;;;;;;;7.64;100.00;100158.50;4978517;28;20031;-91
2023/03/25 05:06:50;;;;;;;5.40;1.60;;;;;;;7.69;100.00;100170.41;4952256;28;20030;-91
2023/03/25 05:09:23;;;;;;;8.52;1.77;;;;;;;7.60;100.00;100162.03;4978422;28;20399;-91
2023/03/25 05:11:51;;;;;;;5.32;1.40;;;;;;;7.53;100.00;100156.16;4966589;28;20434;-91
2023/03/25 05:14:19;;;;;;;5.95;1.75;;;;;;;7.58;100.00;100171.50;4978969;28;20037;-91
2023/03/25 05:16:46;;;;;;;6.13;1.70;;;;;;;7.56;100.00;100178.47;4978659;28;20141;-91
2023/03/25 05:19:13;;;;;;;7.40;1.55;;;;;;;7.45;100.00;100164.06;4978853;28;20031;-92
2023/03/25 05:21:40;;;;;;;7.65;1.90;;;;;;;7.44;100.00;100161.50;4976333;28;20132;-91
2023/03/25 05:24:09;;;;;;;8.73;1.80;;;;;;;7.44;100.00;100176.97;4978521;28;20034;-92
2023/03/25 05:26:38;;;;;;;8.50;1.50;;;;;;;7.46;100.00;100178.66;4977293;28;20026;-91
2023/03/25 05:29:07;;;;;;;4.72;1.63;;;;;;;7.29;100.00;100162.72;4993379;28;20030;-91
2023/03/25 05:31:32;;;;;;;12.45;2.05;;;;;;;7.24;100.00;100168.81;4965672;28;20038;-91
2023/03/25 05:33:58;;;;;;;9.68;1.88;;;;;;;7.23;100.00;100167.16;4977852;28;20022;-91
2023/03/25 05:36:23;;;;;;;5.97;1.85;;;;;;;7.36;100.00;100181.47;4978429;28;20068;-92
2023/03/25 05:38:53;;;;;;;8.55;1.70;;;;;;;7.31;100.00;100172.97;4993864;28;20018;-91
2023/03/25 05:41:19;;;;;;;10.77;1.90;;;;;;;7.33;100.00;100191.84;4978729;28;20030;-92
2023/03/25 05:43:49;;;;;;;7.15;2.10;;;;;;;7.35;100.00;100183.19;4960924;28;20454;-92
2023/03/25 05:46:16;;;;;;;9.32;1.90;;;;;;;7.40;100.00;100190.81;4976466;28;20034;-90
2023/03/25 05:48:43;;;;;;;7.82;1.85;;;;;;;7.39;100.00;100194.28;4965195;28;20026;-91
2023/03/25 05:51:20;;;;;;;7.53;1.70;;;;;;;7.43;100.00;100191.63;4992324;28;20034;-90
2023/03/25 05:53:48;;;;;;;8.13;1.60;;;;;;;7.34;100.00;100196.97;4978237;28;20053;-91
2023/03/25 05:56:16;;;;;;;5.43;1.77;;;;;;;7.40;100.00;100181.38;4976811;28;20030;-90
2023/03/25 05:58:46;;;;;;;8.68;1.88;;;;;;;7.37;100.00;100193.50;4975140;28;20529;-90
2023/03/25 06:01:13;;;;;;;6.43;2.22;;;;;;;7.40;100.00;100201.13;4976474;28;21155;-91
2023/03/25 06:03:39;;;;;;;8.68;2.00;;;;;;;7.46;100.00;100206.16;4975339;28;20025;-91
2023/03/25 06:06:12;;;;;;;9.48;2.00;;;;;;;7.38;100.00;100197.72;4976647;28;20053;-91
2023/03/25 06:08:42;;;;;;;7.78;1.77;;;;;;;7.47;100.00;100207.88;4976266;28;20433;-90
2023/03/25 06:11:14;;;;;;;8.80;2.08;;;;;;;7.42;100.00;100199.38;4976953;28;20026;-90
2023/03/25 06:13:40;;;;;;;7.15;1.80;;;;;;;7.41;100.00;100203.69;4976327;28;20038;-90
2023/03/25 06:16:08;;;;;;;7.45;2.10;;;;;;;7.47;100.00;100213.03;4976960;28;20034;-91
2023/03/25 06:18:39;;;;;;;7.53;2.10;;;;;;;7.43;100.00;100203.66;4978507;28;20031;-87
2023/03/25 06:21:05;;;;;;;7.07;2.25;;;;;;;7.40;100.00;100201.13;4978058;28;20110;-87
2023/03/25 06:23:34;;;;;;;5.78;2.30;;;;;;;7.37;100.00;100199.47;4977733;28;20049;-87
2023/03/25 06:26:00;;;;;;;8.63;1.95;;;;;;;7.38;100.00;100203.75;4975964;28;20624;-88
2023/03/25 06:28:26;;;;;;;9.77;2.15;;;;;;;7.47;100.00;100213.88;4974455;28;20097;-87
2023/03/25 06:30:51;;;;;;;8.82;2.17;;;;;;;7.49;100.00;100196.66;4975177;28;20030;-87
2023/03/25 06:33:18;;;;;;;8.48;2.15;;;;;;;7.50;100.00;100206.09;4976695;28;20414;-87
2023/03/25 06:35:48;;;;;;;5.53;1.88;;;;;;;7.45;100.00;100202.72;4963097;28;20037;-87
2023/03/25 06:38:14;;;;;;;7.90;2.10;;;;;;;7.58;100.00;100210.19;4976135;28;20517;-87
2023/03/25 06:40:39;;;;;;;9.05;2.20;;;;;;;7.61;100.00;100205.00;4977781;28;20502;-87
2023/03/25 06:43:05;;;;;;;8.15;2.10;;;;;;;7.65;100.00;100210.03;4977711;28;20105;-87
2023/03/25 06:45:32;;;;;;;9.00;2.35;;;;;;;7.71;100.00;100207.31;4978217;28;20026;-87
2023/03/25 06:47:59;;;;;;;7.22;2.08;;;;;;;7.93;100.00;100216.28;4977533;28;20030;-87
2023/03/25 06:50:24;;;;;;;4.80;1.92;;;;;;;8.02;100.00;100211.78;4976327;28;20085;-87
2023/03/25 06:52:50;;;;;;;8.95;2.10;;;;;;;8.16;100.00;100215.75;4978490;28;20153;-87
2023/03/25 06:55:15;;;;;;;9.07;2.13;;;;;;;8.27;100.00;100221.50;4977217;28;20106;-87
2023/03/25 06:57:42;;;;;;;8.45;2.20;;;;;;;8.32;100.00;100219.66;4957147;28;20049;-87
2023/03/25 07:00:10;;;;;;;10.68;2.30;;;;;;;8.42;99.76;100228.06;4971997;28;20038;-87
2023/03/25 07:02:37;;;;;;;9.43;2.05;;;;;;;8.41;99.94;100216.03;4976453;28;20018;-87
2023/03/25 07:05:03;;;;;;;8.77;1.90;;;;;;;8.37;99.20;100209.25;4977509;28;20026;-87
2023/03/25 07:07:28;;;;;;;8.48;2.10;;;;;;;8.45;99.31;100212.50;4976966;28;20026;-87
2023/03/25 07:09:54;;;;;;;12.25;2.28;;;;;;;8.52;98.47;100220.94;4977496;28;20498;-87
2023/03/25 07:12:21;;;;;;;11.02;2.00;;;;;;;8.57;97.98;100222.50;4978657;28;20077;-88
2023/03/25 07:14:51;;;;;;;11.57;2.17;;;;;;;8.65;97.91;100223.16;4975329;28;20490;-88
2023/03/25 07:17:17;;;;;;;11.07;2.33;;;;;;;8.69;98.13;100221.34;4962713;28;20803;-88
2023/03/25 07:19:42;;;;;;;11.02;2.30;;;;;;;8.67;97.21;100208.44;4977066;28;20026;-88
2023/03/25 07:22:08;;;;;;;11.00;2.50;;;;;;;8.73;97.17;100215.22;4976891;28;20034;-88
2023/03/25 07:24:34;;;;;;;13.30;2.60;;;;;;;8.73;96.54;100207.47;4959370;28;20034;-88
2023/03/25 07:26:59;;;;;;;13.02;3.08;;;;;;;9.00;97.59;100229.16;4974499;28;20041;-88
2023/03/25 07:29:25;;;;;;;11.13;2.33;;;;;;;9.39;94.77;100222.00;4977141;28;20034;-88
2023/03/25 07:31:50;;;;;;;11.75;2.15;;;;;;;9.50;93.71;100232.88;4980968;28;20038;-87
2023/03/25 07:34:16;;;;;;;10.60;2.63;;;;;;;9.52;95.13;100237.13;4995924;28;20033;-87
2023/03/25 07:36:41;;;;;;;9.68;2.40;;;;;;;9.38;97.06;100226.31;4993714;28;20022;-88
2023/03/25 07:39:07;;;;;;;10.82;2.60;;;;;;;9.21;96.63;100235.47;4980724;28;20038;-88
2023/03/25 07:41:32;;;;;;;15.63;2.90;;;;;;;9.06;97.15;100249.66;4979026;28;20134;-88
2023/03/25 07:43:58;;;;;;;9.45;2.42;;;;;;;8.81;97.64;100222.75;4979052;28;20037;-88
2023/03/25 07:46:23;;;;;;;9.88;2.35;;;;;;;8.73;97.98;100231.53;4995511;28;20031;-88
2023/03/25 07:48:49;;;;;;;16.20;2.80;;;;;;;8.72;98.95;100244.53;4995359;28;20117;-87
2023/03/25 07:51:15;;;;;;;11.20;3.00;;;;;;;8.68;99.94;100251.50;4980417;28;20026;-87
2023/03/25 07:53:43;;;;;;;11.80;2.50;;;;;;;8.65;100.00;100243.84;4980350;28;20046;-86
2023/03/25 07:56:09;;;;;;;9.75;2.00;;;;;;;8.64;99.17;100241.28;4979744;28;20475;-87
2023/03/25 07:58:35;;;;;;;15.15;2.50;;;;;;;8.73;100.00;100241.88;4966851;28;20141;-87
2023/03/25 08:01:01;;;;;;;14.45;2.80;;;;;;;8.87;100.00;100269.13;4980714;28;20188;-87
2023/03/25 08:03:27;;;;;;;15.65;2.40;;;;;;;8.95;99.40;100254.25;4980363;28;20030;-87
2023/03/25 08:05:53;;;;;;;12.60;2.50;;;;;;;9.09;100.00;100246.97;4979605;28;20065;-87
2023/03/25 08:08:18;;;;;;;10.80;2.65;;;;;;;9.28;99.42;100257.69;4962232;28;20064;-87
2023/03/25 08:10:46;;;;;;;11.98;2.60;;;;;;;9.14;99.75;100252.03;4960981;28;20053;-88
2023/03/25 08:13:13;;;;;;;13.05;3.03;;;;;;;9.12;99.69;100270.16;4979017;28;20501;-88
2023/03/25 08:15:39;;;;;;;11.68;2.38;;;;;;;9.14;100.00;100264.97;4978770;28;20490;-88
2023/03/25 08:18:05;;;;;;;8.75;2.35;;;;;;;9.19;99.85;100263.94;4961211;28;20038;-87
2023/03/25 08:20:32;;;;;;;12.20;2.60;;;;;;;9.28;99.92;100274.00;4978025;28;20471;-87
2023/03/25 08:23:01;;;;;;;13.57;2.78;;;;;;;9.20;100.00;100294.09;4979929;28;20056;-88
2023/03/25 08:25:28;;;;;;;16.30;2.38;;;;;;;8.89;100.00;100275.09;4979952;28;20121;-88
2023/03/25 08:27:54;;;;;;;12.85;2.70;;;;;;;8.56;100.00;100266.47;4978666;28;20030;-88
2023/03/25 08:30:22;;;;;;;12.98;2.33;;;;;;;8.55;100.00;100288.84;4979158;28;20458;-92
2023/03/25 08:32:53;;;;;;;10.95;2.67;;;;;;;8.49;100.00;100283.84;4968510;28;20297;-92
2023/03/25 08:35:20;;;;;;;15.10;2.65;;;;;;;8.47;100.00;100283.03;4980557;28;20038;-92
2023/03/25 08:37:51;;;;;;;10.65;2.50;;;;;;;8.46;100.00;100280.50;4995497;28;20057;-92
2023/03/25 08:40:17;;;;;;;12.80;2.72;;;;;;;8.42;100.00;100277.13;4962138;28;20482;-92
2023/03/25 08:42:48;;;;;;;10.65;2.60;;;;;;;8.35;100.00;100279.88;4978116;28;20249;-91
2023/03/25 08:45:17;;;;;;;9.32;3.05;;;;;;;8.29;100.00;100296.34;4981628;28;20026;-93
2023/03/25 08:47:45;;;;;;;13.32;3.00;;;;;;;8.18;100.00;100288.84;4963502;28;20026;-93
2023/03/25 08:50:31;;;;;;;13.10;2.85;;;;;;;8.29;100.00;100286.88;4980482;28;20022;-92
2023/03/25 08:52:57;;;;;;;12.82;3.30;;;;;;;8.48;100.00;100296.78;4981286;28;20038;-93
2023/03/25 08:55:24;;;;;;;13.80;3.20;;;;;;;8.60;100.00;100276.66;4979086;28;20037;-92
2023/03/25 08:58:06;;;;;;;11.10;3.58;;;;;;;8.98;100.00;100283.47;4980236;28;20092;-92
2023/03/25 09:00:36;;;;;;;13.02;3.03;;;;;;;9.20;100.00;100291.50;4979406;28;20038;-89
2023/03/25 09:03:09;;;;;;;13.38;3.15;;;;;;;9.33;100.00;100287.69;4978083;28;20041;-89
2023/03/25 09:05:40;;;;;;;14.25;3.15;;;;;;;9.60;100.00;100292.97;4979471;28;20027;-88
2023/03/25 09:08:06;;;;;;;13.68;3.80;;;;;;;10.04;100.00;100283.88;4994316;28;20030;-88
2023/03/25 09:10:34;;;;;;;15.90;3.28;;;;;;;10.55;100.00;100287.47;4966918;28;20503;-89
2023/03/25 09:13:02;;;;;;;15.77;3.30;;;;;;;11.16;100.00;100284.56;4977897;28;20442;-88
2023/03/25 09:15:35;;;;;;;14.32;3.22;;;;;;;11.42;99.55;100266.31;4979049;28;20030;-88
2023/03/25 09:18:01;;;;;;;14.10;2.70;;;;;;;11.58;96.81;100264.84;4976984;28;20117;-88
2023/03/25 09:20:26;;;;;;;11.60;3.50;;;;;;;11.56;95.45;100258.88;4962813;28;20153;-88
2023/03/25 09:22:52;;;;;;;10.80;3.30;;;;;;;11.76;92.03;100276.31;4966617;28;20052;-87
2023/03/25 09:25:17;;;;;;;12.32;2.90;;;;;;;11.58;92.46;100269.19;4979309;28;20030;-88
2023/03/25 09:27:43;;;;;;;13.35;2.88;;;;;;;11.55;92.28;100251.97;4979186;28;20062;-88
2023/03/25 09:30:09;;;;;;;16.10;2.97;;;;;;;11.75;91.59;100272.03;4978482;28;20026;-88
2023/03/25 09:32:35;;;;;;;16.40;3.83;;;;;;;11.77;90.89;100278.88;4978284;28;20388;-88
2023/03/25 09:35:00;;;;;;;11.60;3.33;;;;;;;11.98;92.71;100264.22;4966177;28;20486;-88
2023/03/25 09:37:26;;;;;;;16.55;3.35;;;;;;;11.99;87.05;100265.94;4977950;28;20066;-88
2023/03/25 09:39:52;;;;;;;12.63;3.03;;;;;;;12.05;88.97;100270.88;4977929;28;20053;-88
2023/03/25 09:42:32;;;;;;;14.80;3.80;;;;;;;12.38;90.55;100289.47;4967190;28;20040;-88
2023/03/25 09:45:31;;;;;;;17.42;3.55;;;;;;;12.61;84.70;100281.63;4978200;28;20034;-88
2023/03/25 09:48:03;;;;;;;18.50;3.85;;;;;;;12.34;85.42;100281.88;4959283;28;20050;-88
2023/03/25 09:50:31;;;;;;;16.98;3.10;;;;;;;12.16;85.35;100292.06;4966070;28;20062;-89
2023/03/25 09:53:10;;;;;;;13.68;4.03;;;;;;;11.94;86.78;100282.59;4978436;28;20073;-88
2023/03/25 09:55:41;;;;;;;11.65;3.08;;;;;;;11.73;86.48;100295.44;4978638;28;20073;-89
2023/03/25 09:58:41;;;;;;;13.45;3.22;;;;;;;11.44;89.76;100290.47;4978328;28;20039;-88
2023/03/25 10:01:31;;;;;;;14.35;3.03;;;;;;;11.39;90.11;100298.44;4955749;28;20454;-89
2023/03/25 10:04:06;;;;;;;14.35;3.40;;;;;;;11.27;90.61;100309.22;4965958;28;20038;-88
2023/03/25 10:06:42;;;;;;;13.70;3.60;;;;;;;10.89;95.73;100300.19;4978576;28;20034;-89
2023/03/25 10:09:37;;;;;;;15.30;3.60;;;;;;;10.49;96.22;100286.84;4965688;28;20703;-88
2023/03/25 10:12:24;;;;;;;15.57;3.70;;;;;;;10.23;97.19;100311.81;4976283;28;20034;-89
2023/03/25 10:14:59;;;;;;;16.33;3.78;;;;;;;10.14;100.00;100300.84;4976236;28;20030;-88
2023/03/25 10:17:42;;;;;;;16.90;3.90;;;;;;;10.23;99.39;100305.78;4976933;28;20038;-88
2023/03/25 10:20:40;;;;;;;15.97;4.23;;;;;;;10.00;100.00;100295.25;4976486;28;20026;-91
2023/03/25 10:23:24;;;;;;;16.08;3.85;;;;;;;10.03;100.00;100308.94;4977855;28;21031;-92
2023/03/25 10:26:00;;;;;;;13.50;3.22;;;;;;;10.18;100.00;100297.28;4960656;28;20471;-92
2023/03/25 10:28:37;;;;;;;17.83;3.58;;;;;;;10.21;98.79;100305.84;4979110;28;20030;-92
2023/03/25 10:31:12;;;;;;;17.15;3.63;;;;;;;10.24;98.38;100336.81;4976402;28;20056;-93
2023/03/25 10:33:53;;;;;;;18.55;4.30;;;;;;;9.93;100.00;100315.28;4993055;28;20073;-92
2023/03/25 10:36:28;;;;;;;16.85;4.40;;;;;;;9.56;100.00;100331.00;4978282;28;20030;-91
2023/03/25 10:38:54;;;;;;;18.30;4.70;;;;;;;9.28;100.00;100345.59;4960390;28;20026;-93
2023/03/25 10:41:26;;;;;;;13.10;4.65;;;;;;;9.18;100.00;100321.72;4993238;28;20030;-93
2023/03/25 10:43:53;;;;;;;21.58;4.80;;;;;;;9.18;100.00;100334.63;4965956;28;20031;-92
2023/03/25 10:46:50;;;;;;;21.45;4.80;;;;;;;9.17;100.00;100337.25;4965273;28;20121;-92
2023/03/25 10:49:19;;;;;;;17.75;4.25;;;;;;;9.13;100.00;100335.66;4964380;28;20486;-91
2023/03/25 10:51:49;;;;;;;16.85;4.38;;;;;;;9.05;100.00;100320.34;4977439;28;20023;-93
2023/03/25 10:54:15;;;;;;;18.50;4.47;;;;;;;9.10;100.00;100327.09;4979017;28;20089;-93
2023/03/25 10:56:51;;;;;;;18.45;4.53;;;;;;;9.27;100.00;100333.56;4983550;28;20054;-92
2023/03/25 10:59:26;;;;;;;20.98;4.30;;;;;;;9.28;100.00;100317.97;4973090;28;20707;-93
2023/03/25 11:01:56;;;;;;;18.60;4.18;;;;;;;9.38;100.00;100331.53;4974450;28;20813;-93
2023/03/25 11:04:34;;;;;;;24.35;4.72;;;;;;;9.64;100.00;100325.63;4959901;28;21149;-94
2023/03/25 11:07:10;;;;;;;17.15;4.38;;;;;;;10.07;100.00;100333.84;4968050;28;20050;-93
2023/03/25 11:09:37;;;;;;;11.98;4.32;;;;;;;10.25;100.00;100322.97;4964504;28;20018;-93
2023/03/25 11:12:05;;;;;;;17.52;4.00;;;;;;;10.35;100.00;100307.16;4966955;28;20042;-94
2023/03/25 11:14:37;;;;;;;17.40;4.22;;;;;;;10.71;100.00;100337.09;4978038;28;20369;-93
2023/03/25 11:17:10;;;;;;;16.52;3.40;;;;;;;10.97;100.00;100318.91;4963806;28;20058;-93
2023/03/25 11:19:38;;;;;;;15.63;3.35;;;;;;;11.20;98.84;100331.09;4963215;28;20034;-93
2023/03/25 11:22:18;;;;;;;15.10;3.33;;;;;;;11.09;95.79;100339.25;4966811;28;20065;-94
2023/03/25 11:24:47;;;;;;;13.77;2.15;;;;;;;10.90;92.73;100304.47;4961990;28;20505;-93
2023/03/25 11:27:54;;;;;;;14.90;2.50;;;;;;;10.92;93.07;100318.22;4961715;28;20027;-93
2023/03/25 11:30:25;;;;;;;13.75;2.42;;;;;;;11.03;91.68;100312.69;4962811;28;20035;-92
2023/03/25 11:33:04;;;;;;;13.30;1.90;;;;;;;11.19;92.37;100331.16;4978337;28;20026;-93
2023/03/25 11:35:35;;;;;;;8.15;1.60;;;;;;;11.21;87.32;100321.56;4963066;28;21075;-92
2023/03/25 11:38:13;;;;;;;10.95;1.88;;;;;;;11.09;87.29;100323.69;4978084;28;20183;-93
2023/03/25 11:40:49;;;;;;;7.25;1.45;;;;;;;11.23;87.63;100356.94;4976595;28;20302;-93
2023/03/25 11:43:20;;;;;;;8.50;1.60;;;;;;;11.32;87.83;100350.59;4977877;28;20549;-93
2023/03/25 11:45:46;;;;;;;10.25;1.80;;;;;;;11.54;86.57;100341.13;4963840;28;20035;-93